Time;durP1;ratioP1;P1;durP2;ratioP2;P2;SDS_P1;SDS_P2;PMS_P1;PMS_P2;Temp;Humidity;BMP_temperature;BMP_pressure;BME280_temperature;BME280_humidity;BME280_pressure;Samples;Min_cycle;Max_cycle;Signal;HPM_P1;HPM_P2
2022/07/01 00:00:38;;;;;;;;;;;27.30;53.00;;;;;;2090691;28;1252;-82
2022/07/01 00:01:42;;;;;;;;;;;27.30;52.90;;;;;;2099267;28;807;-82
2022/07/01 00:02:42;;;;;;;;;;;27.40;53.00;;;;;;2099909;28;853;-82
2022/07/01 00:03:49;;;;;;;;;;;27.40;52.90;;;;;;2099019;28;1253;-81
2022/07/01 00:04:49;;;;;;;;;;;27.30;52.80;;;;;;2099188;28;1276;-82
2022/07/01 00:05:49;;;;;;;;;;;27.30;53.00;;;;;;2100131;28;920;-81
2022/07/01 00:06:51;;;;;;;;;;;27.40;52.90;;;;;;2106557;28;999;-82
2022/07/01 00:07:51;;;;;;;;;;;27.40;52.90;;;;;;2104403;28;916;-82
2022/07/01 00:08:51;;;;;;;;;;;27.30;52.90;;;;;;2099191;28;1387;-82
2022/07/01 00:09:52;;;;;;;;;;;27.30;52.90;;;;;;2090919;28;1398;-81
2022/07/01 00:10:52;;;;;;;;;;;27.40;52.90;;;;;;2099350;28;868;-82
2022/07/01 00:11:53;;;;;;;;;;;27.30;52.90;;;;;;2099645;28;1947;-82
2022/07/01 00:12:53;;;;;;;;;;;27.30;52.90;;;;;;2099170;28;1418;-82
2022/07/01 00:13:54;;;;;;;;;;;27.40;52.80;;;;;;2100862;28;869;-82
2022/07/01 00:14:55;;;;;;;;;;;27.30;52.80;;;;;;2101214;28;1244;-82
2022/07/01 00:15:55;;;;;;;;;;;27.40;52.80;;;;;;2100624;28;1187;-82
2022/07/01 00:16:57;;;;;;;;;;;27.40;52.90;;;;;;2092622;28;1250;-82
2022/07/01 00:17:57;;;;;;;;;;;27.40;53.00;;;;;;2100885;28;936;-82
2022/07/01 00:18:57;;;;;;;;;;;27.30;52.90;;;;;;2101357;28;889;-82
2022/07/01 00:19:58;;;;;;;;;;;27.30;52.90;;;;;;2101325;28;818;-82
2022/07/01 00:21:00;;;;;;;;;;;27.40;53.00;;;;;;2101415;28;911;-82
2022/07/01 00:22:01;;;;;;;;;;;27.40;53.00;;;;;;2101373;28;829;-82
2022/07/01 00:23:01;;;;;;;;;;;27.40;53.00;;;;;;2101285;28;861;-82
2022/07/01 00:24:02;;;;;;;;;;;27.40;53.00;;;;;;2101466;28;948;-82
2022/07/01 00:25:02;;;;;;;;;;;27.40;53.10;;;;;;2100617;28;1283;-82
2022/07/01 00:26:03;;;;;;;;;;;27.40;53.10;;;;;;2092528;28;1262;-82
2022/07/01 00:27:05;;;;;;;;;;;27.40;53.10;;;;;;2100691;28;1297;-82
2022/07/01 00:28:05;;;;;;;;;;;27.40;53.10;;;;;;2100789;28;940;-82
2022/07/01 00:29:05;;;;;;;;;;;27.40;53.20;;;;;;2101214;28;996;-82
2022/07/01 00:30:06;;;;;;;;;;;27.40;53.00;;;;;;2100534;28;1392;-82
2022/07/01 00:31:06;;;;;;;;;;;27.40;52.90;;;;;;2100530;28;1964;-82
2022/07/01 00:32:07;;;;;;;;;;;27.30;53.10;;;;;;2101334;28;1134;-82
2022/07/01 00:33:07;;;;;;;;;;;27.40;53.00;;;;;;2100676;28;1233;-82
2022/07/01 00:34:07;;;;;;;;;;;27.40;53.00;;;;;;2100739;28;1090;-82
2022/07/01 00:35:09;;;;;;;;;;;27.30;53.00;;;;;;2101208;28;1185;-82
2022/07/01 00:36:09;;;;;;;;;;;27.40;53.10;;;;;;2100783;28;1267;-82
2022/07/01 00:37:09;;;;;;;;;;;27.30;53.00;;;;;;2092366;28;1398;-82
2022/07/01 00:38:10;;;;;;;;;;;27.40;53.00;;;;;;2100763;28;945;-82
2022/07/01 00:39:10;;;;;;;;;;;27.30;53.10;;;;;;2101309;28;1096;-82
2022/07/01 00:40:11;;;;;;;;;;;27.30;53.20;;;;;;2101354;28;908;-82
2022/07/01 00:41:11;;;;;;;;;;;27.40;53.10;;;;;;2100662;28;1433;-82
2022/07/01 00:42:11;;;;;;;;;;;27.40;53.20;;;;;;2092197;28;1255;-82
2022/07/01 00:43:12;;;;;;;;;;;27.40;53.20;;;;;;2100693;28;1031;-82
2022/07/01 00:44:12;;;;;;;;;;;27.30;53.30;;;;;;2101265;28;1074;-82
2022/07/01 00:45:14;;;;;;;;;;;27.40;53.10;;;;;;2100363;28;1378;-82
2022/07/01 00:46:14;;;;;;;;;;;27.30;53.20;;;;;;2100826;28;862;-82
2022/07/01 00:47:15;;;;;;;;;;;27.40;53.30;;;;;;2101003;28;1007;-82
2022/07/01 00:48:16;;;;;;;;;;;27.40;53.40;;;;;;2101067;28;854;-82
2022/07/01 00:49:17;;;;;;;;;;;27.30;53.20;;;;;;2100567;28;1279;-82
2022/07/01 00:50:17;;;;;;;;;;;27.30;53.30;;;;;;2092289;28;1287;-82
2022/07/01 00:51:17;;;;;;;;;;;27.30;53.40;;;;;;2100524;28;1976;-82
2022/07/01 00:52:18;;;;;;;;;;;27.30;53.40;;;;;;2100296;28;1373;-82
2022/07/01 00:53:18;;;;;;;;;;;27.40;53.40;;;;;;2100714;28;895;-82
2022/07/01 00:54:18;;;;;;;;;;;27.40;53.30;;;;;;2100545;28;1239;-82
2022/07/01 00:55:19;;;;;;;;;;;27.30;53.40;;;;;;2100410;28;1229;-82
2022/07/01 00:56:19;;;;;;;;;;;27.30;53.20;;;;;;2100434;28;1273;-82
2022/07/01 00:57:20;;;;;;;;;;;27.30;53.30;;;;;;2100787;28;923;-82
2022/07/01 00:58:20;;;;;;;;;;;27.30;53.30;;;;;;2100562;28;1281;-81
2022/07/01 00:59:21;;;;;;;;;;;27.30;53.30;;;;;;2100842;28;900;-82
2022/07/01 01:00:26;;;;;;;;;;;27.30;53.20;;;;;;2100467;28;1365;-82
2022/07/01 01:01:26;;;;;;;;;;;27.40;53.30;;;;;;2100548;28;845;-82
2022/07/01 01:02:26;;;;;;;;;;;27.30;53.40;;;;;;2100458;28;1259;-82
2022/07/01 01:03:27;;;;;;;;;;;27.30;53.30;;;;;;2092134;28;1238;-82
2022/07/01 01:04:27;;;;;;;;;;;27.30;53.30;;;;;;2100315;28;1223;-82
2022/07/01 01:05:28;;;;;;;;;;;27.30;53.20;;;;;;2091990;28;1212;-82
2022/07/01 01:06:29;;;;;;;;;;;27.30;53.20;;;;;;2100434;28;1158;-82
2022/07/01 01:07:29;;;;;;;;;;;27.30;53.20;;;;;;2092271;28;1242;-82
2022/07/01 01:08:29;;;;;;;;;;;27.30;53.20;;;;;;2091974;28;1318;-82
2022/07/01 01:09:30;;;;;;;;;;;27.40;53.20;;;;;;2100389;28;882;-82
2022/07/01 01:10:30;;;;;;;;;;;27.40;53.30;;;;;;2100986;28;794;-82
2022/07/01 01:11:31;;;;;;;;;;;27.30;53.20;;;;;;2100466;28;1906;-82
2022/07/01 01:12:33;;;;;;;;;;;27.30;53.20;;;;;;2092487;28;1214;-82
2022/07/01 01:13:33;;;;;;;;;;;27.30;53.20;;;;;;2092035;28;1169;-82
2022/07/01 01:14:33;;;;;;;;;;;27.30;53.10;;;;;;2092177;28;1354;-82
2022/07/01 01:15:34;;;;;;;;;;;27.40;53.20;;;;;;2092195;28;1218;-82
2022/07/01 01:16:35;;;;;;;;;;;27.40;53.00;;;;;;2092088;28;1241;-83
2022/07/01 01:17:36;;;;;;;;;;;27.40;53.10;;;;;;2100594;28;855;-82
2022/07/01 01:18:36;;;;;;;;;;;27.40;53.10;;;;;;2101168;28;1011;-82
2022/07/01 01:19:36;;;;;;;;;;;27.30;53.10;;;;;;2103294;28;1368;-82
2022/07/01 01:20:37;;;;;;;;;;;27.30;53.10;;;;;;2101822;28;1230;-83
2022/07/01 01:21:38;;;;;;;;;;;27.30;53.00;;;;;;2100406;28;1023;-82
2022/07/01 01:22:40;;;;;;;;;;;27.30;53.10;;;;;;2100867;28;920;-82
2022/07/01 01:23:40;;;;;;;;;;;27.30;53.10;;;;;;2100309;28;1198;-82
2022/07/01 01:24:40;;;;;;;;;;;27.40;53.10;;;;;;2091160;28;1191;-82
2022/07/01 01:25:41;;;;;;;;;;;27.40;53.10;;;;;;2099994;28;1371;-82
2022/07/01 01:26:41;;;;;;;;;;;27.30;53.10;;;;;;2091763;28;1268;-82
2022/07/01 01:27:41;;;;;;;;;;;27.30;52.90;;;;;;2100370;28;1242;-82
2022/07/01 01:28:42;;;;;;;;;;;27.30;53.00;;;;;;2092064;28;1262;-82
2022/07/01 01:29:42;;;;;;;;;;;27.30;53.00;;;;;;2100173;28;1296;-82
2022/07/01 01:30:43;;;;;;;;;;;27.30;53.10;;;;;;2100135;28;1356;-82
2022/07/01 01:31:43;;;;;;;;;;;27.40;53.00;;;;;;2100104;28;1931;-82
2022/07/01 01:32:44;;;;;;;;;;;27.30;52.90;;;;;;2100053;28;1206;-82
2022/07/01 01:33:44;;;;;;;;;;;27.30;53.10;;;;;;2100298;28;913;-82
2022/07/01 01:34:44;;;;;;;;;;;27.30;52.90;;;;;;2100013;28;1361;-82
2022/07/01 01:35:45;;;;;;;;;;;27.40;53.00;;;;;;2092082;28;1234;-82
2022/07/01 01:36:45;;;;;;;;;;;27.30;52.90;;;;;;2091857;28;1191;-82
2022/07/01 01:37:46;;;;;;;;;;;27.30;52.90;;;;;;2091968;28;1369;-82
2022/07/01 01:38:46;;;;;;;;;;;27.30;52.90;;;;;;2091824;28;1358;-82
2022/07/01 01:39:47;;;;;;;;;;;27.30;53.00;;;;;;2091849;28;1249;-82
2022/07/01 01:40:48;;;;;;;;;;;27.30;53.00;;;;;;2091806;28;1270;-82
2022/07/01 01:41:49;;;;;;;;;;;27.30;52.80;;;;;;2091897;28;1260;-82
2022/07/01 01:42:49;;;;;;;;;;;27.30;52.90;;;;;;2091971;28;1316;-83
2022/07/01 01:43:49;;;;;;;;;;;27.30;52.90;;;;;;2091823;28;1238;-82
2022/07/01 01:44:50;;;;;;;;;;;27.30;53.00;;;;;;2100183;28;1359;-82
2022/07/01 01:45:50;;;;;;;;;;;27.30;53.00;;;;;;2100011;28;1300;-82
2022/07/01 01:46:51;;;;;;;;;;;27.30;52.90;;;;;;2100283;28;920;-82
2022/07/01 01:47:51;;;;;;;;;;;27.30;52.60;;;;;;2100882;28;856;-82
2022/07/01 01:48:53;;;;;;;;;;;27.30;52.70;;;;;;2100126;28;1278;-82
2022/07/01 01:49:53;;;;;;;;;;;27.30;52.80;;;;;;2091811;28;1389;-82
2022/07/01 01:50:54;;;;;;;;;;;27.30;52.70;;;;;;2100255;28;841;-82
2022/07/01 01:51:54;;;;;;;;;;;27.30;52.70;;;;;;2100308;28;1898;-82
2022/07/01 01:52:54;;;;;;;;;;;27.30;52.60;;;;;;2096851;28;1271;-82
2022/07/01 01:53:55;;;;;;;;;;;27.30;52.70;;;;;;2107958;28;1059;-82
2022/07/01 01:54:55;;;;;;;;;;;27.30;52.70;;;;;;2108361;28;1379;-82
2022/07/01 01:55:56;;;;;;;;;;;27.30;52.60;;;;;;2099889;28;1186;-82
2022/07/01 01:56:56;;;;;;;;;;;27.30;52.70;;;;;;2091736;28;1392;-82
2022/07/01 01:57:57;;;;;;;;;;;27.30;52.60;;;;;;2091461;28;1353;-82
2022/07/01 01:58:57;;;;;;;;;;;27.30;52.90;;;;;;2100054;28;988;-82
2022/07/01 01:59:57;;;;;;;;;;;27.30;52.60;;;;;;2100040;28;1263;-82
2022/07/01 02:00:58;;;;;;;;;;;27.30;52.70;;;;;;2100051;28;1362;-82
2022/07/01 02:01:58;;;;;;;;;;;27.30;52.60;;;;;;2108477;28;903;-82
2022/07/01 02:02:58;;;;;;;;;;;27.30;52.60;;;;;;2100695;28;1004;-82
2022/07/01 02:03:59;;;;;;;;;;;27.30;52.20;;;;;;2100672;28;887;-82
2022/07/01 02:05:00;;;;;;;;;;;27.30;52.40;;;;;;2100510;28;1161;-82
2022/07/01 02:06:00;;;;;;;;;;;27.30;52.50;;;;;;2099973;28;1397;-82
2022/07/01 02:07:01;;;;;;;;;;;27.30;52.60;;;;;;2099975;28;971;-82
2022/07/01 02:08:01;;;;;;;;;;;27.30;52.50;;;;;;2100641;28;861;-82
2022/07/01 02:09:02;;;;;;;;;;;27.30;52.40;;;;;;2100526;28;912;-82
2022/07/01 02:10:02;;;;;;;;;;;27.30;52.60;;;;;;2099888;28;1381;-82
2022/07/01 02:11:02;;;;;;;;;;;27.30;52.40;;;;;;2091625;28;1282;-82
2022/07/01 02:12:04;;;;;;;;;;;27.30;52.40;;;;;;2099721;28;1951;-82
2022/07/01 02:13:04;;;;;;;;;;;27.30;52.30;;;;;;2100018;28;922;-82
2022/07/01 02:14:04;;;;;;;;;;;27.30;52.30;;;;;;2099680;28;1132;-82
2022/07/01 02:15:05;;;;;;;;;;;27.30;52.50;;;;;;2091467;28;1384;-82
2022/07/01 02:16:05;;;;;;;;;;;27.30;52.50;;;;;;2099895;28;1266;-82
2022/07/01 02:17:06;;;;;;;;;;;27.30;52.40;;;;;;2091634;28;1226;-82
2022/07/01 02:18:06;;;;;;;;;;;27.30;52.30;;;;;;2099649;28;1414;-81
2022/07/01 02:19:06;;;;;;;;;;;27.30;52.20;;;;;;2091767;28;1242;-82
2022/07/01 02:20:07;;;;;;;;;;;27.30;52.30;;;;;;2091659;28;1392;-82
2022/07/01 02:21:07;;;;;;;;;;;27.30;52.30;;;;;;2099806;28;1259;-82
2022/07/01 02:22:08;;;;;;;;;;;27.30;52.40;;;;;;2091620;28;1267;-82
2022/07/01 02:23:08;;;;;;;;;;;27.30;52.40;;;;;;2091528;28;1298;-82
2022/07/01 02:24:09;;;;;;;;;;;27.30;52.40;;;;;;2099926;28;1372;-82
2022/07/01 02:25:09;;;;;;;;;;;27.30;52.40;;;;;;2091483;28;1271;-82
2022/07/01 02:26:09;;;;;;;;;;;27.30;52.30;;;;;;2091552;28;1385;-82
2022/07/01 02:27:10;;;;;;;;;;;27.30;52.30;;;;;;2099761;28;1257;-82
2022/07/01 02:28:10;;;;;;;;;;;27.30;52.40;;;;;;2091592;28;1439;-82
2022/07/01 02:29:10;;;;;;;;;;;27.30;52.30;;;;;;2091528;28;1118;-82
2022/07/01 02:30:11;;;;;;;;;;;27.30;52.30;;;;;;2100073;28;1282;-82
2022/07/01 02:31:11;;;;;;;;;;;27.30;52.30;;;;;;2099820;28;1902;-82
2022/07/01 02:32:12;;;;;;;;;;;27.30;52.30;;;;;;2099972;28;1237;-83
2022/07/01 02:33:12;;;;;;;;;;;27.30;52.20;;;;;;2100088;28;868;-82
2022/07/01 02:34:12;;;;;;;;;;;27.30;52.10;;;;;;2100639;28;968;-82
2022/07/01 02:35:13;;;;;;;;;;;27.30;52.30;;;;;;2099801;28;1381;-82
2022/07/01 02:36:14;;;;;;;;;;;27.30;52.20;;;;;;2099979;28;901;-82
2022/07/01 02:37:14;;;;;;;;;;;27.30;52.20;;;;;;2100004;28;1260;-82
2022/07/01 02:38:14;;;;;;;;;;;27.30;52.20;;;;;;2099949;28;842;-82
2022/07/01 02:39:15;;;;;;;;;;;27.30;52.20;;;;;;2100633;28;959;-82
2022/07/01 02:40:15;;;;;;;;;;;27.30;52.30;;;;;;2100526;28;1044;-82
2022/07/01 02:41:15;;;;;;;;;;;27.30;52.20;;;;;;2099921;28;1369;-83
2022/07/01 02:42:31;;;;;;;;;;;27.30;52.20;;;;;;2091971;28;1246;-82
2022/07/01 02:43:31;;;;;;;;;;;27.30;52.20;;;;;;2100107;28;864;-83
2022/07/01 02:44:32;;;;;;;;;;;27.30;52.10;;;;;;2104672;28;1184;-82
2022/07/01 02:45:32;;;;;;;;;;;27.30;52.20;;;;;;2094591;28;1269;-82
2022/07/01 02:46:32;;;;;;;;;;;27.30;52.20;;;;;;2099809;28;936;-82
2022/07/01 02:47:33;;;;;;;;;;;27.30;52.20;;;;;;2100449;28;903;-82
2022/07/01 02:48:34;;;;;;;;;;;27.30;52.20;;;;;;2100437;28;996;-82
2022/07/01 02:49:34;;;;;;;;;;;27.30;52.10;;;;;;2099592;28;1371;-82
2022/07/01 02:50:34;;;;;;;;;;;27.30;52.10;;;;;;2091310;28;1262;-82
2022/07/01 02:51:35;;;;;;;;;;;27.30;52.10;;;;;;2099581;28;1957;-82
2022/07/01 02:52:35;;;;;;;;;;;27.30;52.00;;;;;;2099802;28;932;-82
2022/07/01 02:53:35;;;;;;;;;;;27.30;52.00;;;;;;2099424;28;1207;-82
2022/07/01 02:54:36;;;;;;;;;;;27.30;52.10;;;;;;2099652;28;1248;-82
2022/07/01 02:55:36;;;;;;;;;;;27.30;52.10;;;;;;2099710;28;1244;-82
2022/07/01 02:56:37;;;;;;;;;;;27.30;52.10;;;;;;2091239;28;1240;-82
2022/07/01 02:57:37;;;;;;;;;;;27.30;52.10;;;;;;2091204;28;1391;-82
2022/07/01 02:58:37;;;;;;;;;;;27.30;52.10;;;;;;2099609;28;888;-82
2022/07/01 02:59:38;;;;;;;;;;;27.30;52.10;;;;;;2099594;28;1276;-82
2022/07/01 03:00:38;;;;;;;;;;;27.30;52.10;;;;;;2091267;28;1250;-82
2022/07/01 03:01:38;;;;;;;;;;;27.30;52.10;;;;;;2099531;28;1131;-82
2022/07/01 03:02:39;;;;;;;;;;;27.30;52.10;;;;;;2100213;28;825;-82
2022/07/01 03:03:39;;;;;;;;;;;27.30;52.20;;;;;;2099699;28;1412;-82
2022/07/01 03:04:39;;;;;;;;;;;27.30;52.10;;;;;;2091231;28;1222;-82
2022/07/01 03:05:40;;;;;;;;;;;27.30;52.10;;;;;;2099615;28;976;-82
2022/07/01 03:06:41;;;;;;;;;;;27.30;52.10;;;;;;2099555;28;1378;-82
2022/07/01 03:07:42;;;;;;;;;;;27.30;52.00;;;;;;2091215;28;1387;-82
2022/07/01 03:08:42;;;;;;;;;;;27.30;52.00;;;;;;2099545;28;785;-82
2022/07/01 03:09:43;;;;;;;;;;;27.30;52.10;;;;;;2107814;28;1264;-82
2022/07/01 03:10:43;;;;;;;;;;;27.30;52.00;;;;;;2108043;28;912;-83
2022/07/01 03:11:43;;;;;;;;;;;27.30;51.90;;;;;;2099456;28;1945;-82
2022/07/01 03:12:44;;;;;;;;;;;27.30;52.00;;;;;;2099296;28;1229;-83
2022/07/01 03:13:44;;;;;;;;;;;27.30;51.90;;;;;;2091140;28;1238;-82
2022/07/01 03:14:44;;;;;;;;;;;27.30;52.00;;;;;;2099495;28;1181;-82
2022/07/01 03:15:45;;;;;;;;;;;27.30;51.90;;;;;;2099581;28;1262;-82
2022/07/01 03:16:47;;;;;;;;;;;27.20;51.80;;;;;;2099686;28;985;-82
2022/07/01 03:17:50;;;;;;;;;;;27.30;52.00;;;;;;2099397;28;1211;-82
2022/07/01 03:18:50;;;;;;;;;;;27.30;51.90;;;;;;2099700;28;948;-82
2022/07/01 03:19:51;;;;;;;;;;;27.30;51.90;;;;;;2100210;28;862;-82
2022/07/01 03:20:52;;;;;;;;;;;27.30;52.10;;;;;;2099633;28;1237;-82
2022/07/01 03:21:52;;;;;;;;;;;27.30;51.90;;;;;;2091122;28;1337;-83
2022/07/01 03:22:52;;;;;;;;;;;27.30;51.90;;;;;;2099575;28;1024;-82
2022/07/01 03:23:53;;;;;;;;;;;27.30;51.90;;;;;;2100137;28;890;-82
2022/07/01 03:24:53;;;;;;;;;;;27.30;51.90;;;;;;2100147;28;1173;-82
2022/07/01 03:25:53;;;;;;;;;;;27.30;52.00;;;;;;2099371;28;1261;-82
2022/07/01 03:26:54;;;;;;;;;;;27.30;51.90;;;;;;2099532;28;875;-82
2022/07/01 03:27:54;;;;;;;;;;;27.30;51.90;;;;;;2099324;28;1310;-82
2022/07/01 03:28:55;;;;;;;;;;;27.30;51.90;;;;;;2091261;28;1342;-82
2022/07/01 03:29:56;;;;;;;;;;;27.30;51.80;;;;;;2099489;28;1402;-82
2022/07/01 03:30:56;;;;;;;;;;;27.30;51.90;;;;;;2099603;28;998;-82
2022/07/01 03:31:56;;;;;;;;;;;27.30;51.80;;;;;;2099220;28;1909;-83
2022/07/01 03:32:57;;;;;;;;;;;27.30;51.90;;;;;;2091149;28;1345;-82
2022/07/01 03:33:57;;;;;;;;;;;27.30;51.90;;;;;;2099514;28;1330;-82
2022/07/01 03:34:58;;;;;;;;;;;27.30;51.90;;;;;;2099362;28;1287;-82
2022/07/01 03:35:58;;;;;;;;;;;27.30;51.80;;;;;;2099428;28;1336;-82
2022/07/01 03:36:58;;;;;;;;;;;27.30;51.90;;;;;;2099534;28;980;-83
2022/07/01 03:37:59;;;;;;;;;;;27.30;51.90;;;;;;2100169;28;867;-82
2022/07/01 03:39:00;;;;;;;;;;;27.30;51.80;;;;;;2099406;28;1302;-82
2022/07/01 03:40:01;;;;;;;;;;;27.30;51.80;;;;;;2091218;28;1334;-82
2022/07/01 03:41:01;;;;;;;;;;;27.30;51.80;;;;;;2099556;28;892;-83
2022/07/01 03:42:01;;;;;;;;;;;27.30;51.80;;;;;;2099259;28;1177;-82
2022/07/01 03:43:02;;;;;;;;;;;27.30;51.80;;;;;;2099669;28;841;-82
2022/07/01 03:44:03;;;;;;;;;;;27.30;51.80;;;;;;2099526;28;1355;-82
2022/07/01 03:45:03;;;;;;;;;;;27.30;51.80;;;;;;2099307;28;1471;-82
2022/07/01 03:46:04;;;;;;;;;;;27.30;51.80;;;;;;2099325;28;1218;-82
2022/07/01 03:47:05;;;;;;;;;;;27.30;51.80;;;;;;2099363;28;1110;-82
2022/07/01 03:48:06;;;;;;;;;;;27.20;51.80;;;;;;2099692;28;1238;-82
2022/07/01 03:49:07;;;;;;;;;;;27.30;51.80;;;;;;2092654;28;1295;-82
2022/07/01 03:50:08;;;;;;;;;;;27.30;51.80;;;;;;2101097;28;1345;-82
2022/07/01 03:51:08;;;;;;;;;;;27.30;51.70;;;;;;2092802;28;1227;-82
2022/07/01 03:52:08;;;;;;;;;;;27.30;51.80;;;;;;2100878;28;1951;-82
2022/07/01 03:54:37;;;;;;;;;;;27.30;51.80;;;;;;2101147;28;1299;-82
2022/07/01 03:55:38;;;;;;;;;;;27.30;51.80;;;;;;2101643;28;950;-82
2022/07/01 03:56:38;;;;;;;;;;;27.30;51.80;;;;;;2100900;28;1476;-82
2022/07/01 03:57:38;;;;;;;;;;;27.30;51.80;;;;;;2092738;28;1261;-82
2022/07/01 03:58:39;;;;;;;;;;;27.30;51.80;;;;;;2101140;28;1221;-82
2022/07/01 03:59:39;;;;;;;;;;;27.30;51.70;;;;;;2092745;28;1151;-82
2022/07/01 04:00:40;;;;;;;;;;;27.30;51.70;;;;;;2100920;28;1395;-82
2022/07/01 04:01:40;;;;;;;;;;;27.30;51.70;;;;;;2092723;28;1506;-82
2022/07/01 04:02:40;;;;;;;;;;;27.30;51.80;;;;;;2100785;28;1289;-82
2022/07/01 04:03:41;;;;;;;;;;;27.30;51.50;;;;;;2100740;28;1374;-82
2022/07/01 04:04:41;;;;;;;;;;;27.30;51.70;;;;;;2100890;28;1235;-82
2022/07/01 04:05:41;;;;;;;;;;;27.30;51.70;;;;;;2101552;28;830;-82
2022/07/01 04:06:42;;;;;;;;;;;27.30;51.60;;;;;;2100795;28;1376;-82
2022/07/01 04:07:42;;;;;;;;;;;27.30;51.70;;;;;;2092632;28;1182;-82
2022/07/01 04:08:42;;;;;;;;;;;27.30;51.60;;;;;;2100940;28;1265;-82
2022/07/01 04:09:43;;;;;;;;;;;27.30;51.70;;;;;;2092631;28;1267;-82
2022/07/01 04:10:43;;;;;;;;;;;27.30;51.60;;;;;;2100753;28;1238;-82
2022/07/01 04:11:43;;;;;;;;;;;27.30;51.60;;;;;;2092476;28;1957;-82
2022/07/01 04:12:44;;;;;;;;;;;27.30;51.60;;;;;;2092497;28;1123;-82
2022/07/01 04:13:49;;;;;;;;;;;27.30;51.60;;;;;;2100975;28;1091;-82
2022/07/01 04:14:50;;;;;;;;;;;27.30;51.70;;;;;;2100795;28;1263;-82
2022/07/01 04:15:51;;;;;;;;;;;27.30;51.60;;;;;;2100800;28;947;-82
2022/07/01 04:16:51;;;;;;;;;;;27.30;51.50;;;;;;2109147;28;1268;-82
2022/07/01 04:17:52;;;;;;;;;;;27.30;51.70;;;;;;2109172;28;914;-82
2022/07/01 04:18:52;;;;;;;;;;;27.30;51.60;;;;;;2100846;28;1376;-82
2022/07/01 04:19:53;;;;;;;;;;;27.30;51.60;;;;;;2101038;28;1320;-82
2022/07/01 04:23:33;;;;;;;;;;;27.30;51.50;;;;;;2101450;28;593;-82
2022/07/01 04:24:33;;;;;;;;;;;27.30;51.50;;;;;;2100715;28;1193;-82
2022/07/01 04:25:34;;;;;;;;;;;27.30;51.50;;;;;;2092328;28;1381;-82
2022/07/01 04:26:34;;;;;;;;;;;27.20;51.60;;;;;;2100808;28;833;-82
2022/07/01 04:27:35;;;;;;;;;;;27.30;51.60;;;;;;2109152;28;1229;-82
2022/07/01 04:28:35;;;;;;;;;;;27.20;51.60;;;;;;2109432;28;940;-82
2022/07/01 04:29:36;;;;;;;;;;;27.30;51.50;;;;;;2101344;28;1044;-82
2022/07/01 04:30:36;;;;;;;;;;;27.30;51.40;;;;;;2101287;28;1027;-82
2022/07/01 04:31:36;;;;;;;;;;;27.20;51.50;;;;;;2100479;28;1901;-82
2022/07/01 04:32:37;;;;;;;;;;;27.20;51.50;;;;;;2100828;28;869;-82
2022/07/01 04:33:38;;;;;;;;;;;27.30;51.50;;;;;;2100677;28;1300;-82
2022/07/01 04:34:38;;;;;;;;;;;27.20;51.50;;;;;;2092212;28;1197;-82
2022/07/01 04:35:39;;;;;;;;;;;27.20;51.50;;;;;;2092473;28;1221;-82
2022/07/01 04:36:39;;;;;;;;;;;27.30;51.50;;;;;;2092481;28;1356;-83
2022/07/01 04:37:40;;;;;;;;;;;27.30;51.60;;;;;;2092608;28;1238;-82
2022/07/01 04:38:40;;;;;;;;;;;27.30;51.70;;;;;;2100575;28;1393;-82
2022/07/01 04:39:40;;;;;;;;;;;27.30;51.60;;;;;;2101065;28;892;-82
2022/07/01 04:41:58;;;;;;;;;;;27.30;51.30;;;;;;2101519;28;881;-82
2022/07/01 04:42:01;;;;;;;;;;;27.30;51.50;;;;;;2101109;28;1230;-83
2022/07/01 04:43:02;;;;;;;;;;;27.30;51.50;;;;;;2110175;28;891;-80
2022/07/01 04:44:02;;;;;;;;;;;27.20;51.50;;;;;;2104315;28;1151;-82
2022/07/01 04:45:03;;;;;;;;;;;27.20;51.40;;;;;;2100561;28;1173;-82
2022/07/01 04:46:03;;;;;;;;;;;27.30;51.50;;;;;;2101361;28;817;-82
2022/07/01 04:47:04;;;;;;;;;;;27.20;51.40;;;;;;2100610;28;1228;-82
2022/07/01 04:48:04;;;;;;;;;;;27.20;51.50;;;;;;2092397;28;1388;-82
2022/07/01 04:49:05;;;;;;;;;;;27.30;51.40;;;;;;2100545;28;925;-82
2022/07/01 04:50:05;;;;;;;;;;;27.30;51.40;;;;;;2100365;28;1351;-82
2022/07/01 04:51:05;;;;;;;;;;;27.30;51.40;;;;;;2092178;28;1391;-82
2022/07/01 04:52:06;;;;;;;;;;;27.30;51.40;;;;;;2092060;28;1965;-82
2022/07/01 04:53:06;;;;;;;;;;;27.30;51.40;;;;;;2092131;28;1224;-82
2022/07/01 04:54:07;;;;;;;;;;;27.30;51.40;;;;;;2100543;28;809;-82
2022/07/01 04:55:07;;;;;;;;;;;27.30;51.40;;;;;;2100272;28;1336;-82
2022/07/01 04:56:07;;;;;;;;;;;27.20;51.50;;;;;;2100562;28;845;-82
2022/07/01 04:57:08;;;;;;;;;;;27.30;51.40;;;;;;2100488;28;1149;-82
2022/07/01 04:58:08;;;;;;;;;;;27.20;51.30;;;;;;2092270;28;1168;-82
2022/07/01 04:59:08;;;;;;;;;;;27.30;51.30;;;;;;2100378;28;1079;-82
2022/07/01 05:00:09;;;;;;;;;;;27.30;51.40;;;;;;2100468;28;1260;-82
2022/07/01 05:01:09;;;;;;;;;;;27.30;51.40;;;;;;2100568;28;1269;-82
2022/07/01 05:02:09;;;;;;;;;;;27.30;51.30;;;;;;2108870;28;1039;-82
2022/07/01 05:03:10;;;;;;;;;;;27.30;51.30;;;;;;2100578;28;1241;-82
2022/07/01 05:04:10;;;;;;;;;;;27.20;51.20;;;;;;2100447;28;1187;-82
2022/07/01 05:05:11;;;;;;;;;;;27.30;51.30;;;;;;2100514;28;1248;-82
2022/07/01 05:06:11;;;;;;;;;;;27.30;51.30;;;;;;2100457;28;1223;-82
2022/07/01 05:07:27;;;;;;;;;;;27.30;51.20;;;;;;2091980;28;1381;-82
2022/07/01 05:08:28;;;;;;;;;;;27.30;51.30;;;;;;2100676;28;916;-82
2022/07/01 05:09:28;;;;;;;;;;;27.30;51.20;;;;;;2100343;28;1274;-82
2022/07/01 05:10:29;;;;;;;;;;;27.30;51.30;;;;;;2092001;28;1435;-82
2022/07/01 05:11:29;;;;;;;;;;;27.30;51.20;;;;;;2100273;28;1890;-82
2022/07/01 05:12:29;;;;;;;;;;;27.30;51.20;;;;;;2092159;28;1257;-82
2022/07/01 05:13:30;;;;;;;;;;;27.30;51.20;;;;;;2100497;28;1018;-82
2022/07/01 05:14:30;;;;;;;;;;;27.30;51.20;;;;;;2100284;28;1260;-82
2022/07/01 05:15:31;;;;;;;;;;;27.30;51.10;;;;;;2100390;28;1345;-82
2022/07/01 05:16:31;;;;;;;;;;;27.30;51.20;;;;;;2100490;28;1159;-82
2022/07/01 05:22:56;;;;;;;;;;;27.30;51.20;;;;;;2100916;28;616;-82
2022/07/01 05:23:56;;;;;;;;;;;27.30;51.10;;;;;;2100171;28;1378;-82
2022/07/01 05:24:56;;;;;;;;;;;27.30;51.10;;;;;;2100362;28;1259;-82
2022/07/01 05:25:57;;;;;;;;;;;27.30;51.10;;;;;;2100199;28;1270;-82
2022/07/01 05:26:57;;;;;;;;;;;27.30;51.10;;;;;;2100502;28;1003;-82
2022/07/01 05:27:57;;;;;;;;;;;27.30;51.20;;;;;;2100255;28;1339;-82
2022/07/01 05:28:58;;;;;;;;;;;27.30;51.10;;;;;;2092201;28;1237;-82
2022/07/01 05:29:58;;;;;;;;;;;27.30;51.10;;;;;;2100664;28;809;-82
2022/07/01 05:30:59;;;;;;;;;;;27.30;51.10;;;;;;2101164;28;1040;-82
2022/07/01 05:31:59;;;;;;;;;;;27.30;51.10;;;;;;2100109;28;1975;-82
2022/07/01 05:32:59;;;;;;;;;;;27.30;51.00;;;;;;2100365;28;947;-82
2022/07/01 05:34:00;;;;;;;;;;;27.30;51.00;;;;;;2100308;28;1249;-82
2022/07/01 05:35:01;;;;;;;;;;;27.30;51.10;;;;;;2092100;28;1315;-82
2022/07/01 05:36:01;;;;;;;;;;;27.30;51.00;;;;;;2091923;28;1218;-82
2022/07/01 05:37:01;;;;;;;;;;;27.30;51.00;;;;;;2092053;28;1415;-82
2022/07/01 05:38:02;;;;;;;;;;;27.30;51.10;;;;;;2092199;28;1154;-82
2022/07/01 05:39:02;;;;;;;;;;;27.30;51.10;;;;;;2100352;28;806;-82
2022/07/01 05:40:03;;;;;;;;;;;27.30;51.00;;;;;;2101028;28;884;-82
2022/07/01 05:41:03;;;;;;;;;;;27.20;51.00;;;;;;2100976;28;928;-82
2022/07/01 05:42:03;;;;;;;;;;;27.30;51.00;;;;;;2100655;28;1416;-82
2022/07/01 05:43:04;;;;;;;;;;;27.30;50.90;;;;;;2091812;28;1283;-82
2022/07/01 05:44:04;;;;;;;;;;;27.30;51.10;;;;;;2100183;28;1235;-82
2022/07/01 05:45:04;;;;;;;;;;;27.30;51.00;;;;;;2091935;28;1251;-81
2022/07/01 05:46:05;;;;;;;;;;;27.30;50.40;;;;;;2100081;28;991;-81
2022/07/01 05:47:06;;;;;;;;;;;27.20;50.40;;;;;;2100147;28;1210;-81
2022/07/01 05:48:07;;;;;;;;;;;27.20;50.30;;;;;;2100301;28;904;-81
2022/07/01 05:49:07;;;;;;;;;;;27.20;50.10;;;;;;2100180;28;1203;-82
2022/07/01 05:50:07;;;;;;;;;;;27.10;49.90;;;;;;2092271;28;1260;-82
2022/07/01 05:51:08;;;;;;;;;;;27.10;49.80;;;;;;2100552;28;921;-81
2022/07/01 05:52:08;;;;;;;;;;;27.10;49.90;;;;;;2105601;28;1957;-80
2022/07/01 05:53:08;;;;;;;;;;;27.10;49.90;;;;;;2105781;28;1229;-80
2022/07/01 05:54:09;;;;;;;;;;;27.10;50.10;;;;;;2091814;28;1264;-80
2022/07/01 05:55:10;;;;;;;;;;;27.10;50.20;;;;;;2099890;28;1283;-80
2022/07/01 05:56:10;;;;;;;;;;;27.00;50.00;;;;;;2091484;28;1218;-79
2022/07/01 05:57:10;;;;;;;;;;;27.00;49.80;;;;;;2099918;28;1267;-79
2022/07/01 05:58:11;;;;;;;;;;;27.00;49.80;;;;;;2091682;28;1372;-79
2022/07/01 05:59:11;;;;;;;;;;;27.00;49.80;;;;;;2100161;28;809;-80
2022/07/01 06:00:12;;;;;;;;;;;27.00;49.80;;;;;;2100010;28;1156;-80
2022/07/01 06:01:12;;;;;;;;;;;27.00;49.80;;;;;;2100106;28;984;-80
2022/07/01 06:02:13;;;;;;;;;;;27.00;49.50;;;;;;2099904;28;1276;-80
2022/07/01 06:03:13;;;;;;;;;;;27.00;49.50;;;;;;2100007;28;861;-81
2022/07/01 06:04:13;;;;;;;;;;;27.00;49.70;;;;;;2099827;28;1256;-80
2022/07/01 06:05:14;;;;;;;;;;;27.00;49.50;;;;;;2091579;28;1403;-81
2022/07/01 06:06:14;;;;;;;;;;;27.00;49.60;;;;;;2091508;28;1365;-80
2022/07/01 06:07:14;;;;;;;;;;;26.90;49.70;;;;;;2100163;28;852;-80
2022/07/01 06:08:15;;;;;;;;;;;26.90;49.70;;;;;;2100523;28;944;-80
2022/07/01 06:09:15;;;;;;;;;;;26.90;49.60;;;;;;2099861;28;1454;-80